sensor_id;sensor_type;location;lat;lon;timestamp;P1;durP1;ratioP1;P2;durP2;ratioP2
22863;SDS011;11599;49.882;8.680;2023-04-15T00:09:22;6.57;;;2.23;;
22863;SDS011;11599;49.882;8.680;2023-04-15T00:19:43;4.60;;;2.20;;
22863;SDS011;11599;49.882;8.680;2023-04-15T00:30:07;5.28;;;2.40;;
22863;SDS011;11599;49.882;8.680;2023-04-15T00:40:28;4.27;;;2.40;;
22863;SDS011;11599;49.882;8.680;2023-04-15T00:50:51;6.27;;;2.43;;
22863;SDS011;11599;49.882;8.680;2023-04-15T01:01:12;7.80;;;2.50;;
22863;SDS011;11599;49.882;8.680;2023-04-15T01:11:35;4.67;;;2.37;;
22863;SDS011;11599;49.882;8.680;2023-04-15T01:21:57;7.13;;;2.70;;
22863;SDS011;11599;49.882;8.680;2023-04-15T01:32:20;9.17;;;2.57;;
22863;SDS011;11599;49.882;8.680;2023-04-15T01:42:41;8.03;;;3.17;;
22863;SDS011;11599;49.882;8.680;2023-04-15T01:53:05;6.63;;;3.00;;
22863;SDS011;11599;49.882;8.680;2023-04-15T02:03:29;6.80;;;2.40;;
22863;SDS011;11599;49.882;8.680;2023-04-15T02:13:52;6.67;;;2.50;;
22863;SDS011;11599;49.882;8.680;2023-04-15T02:24:14;7.47;;;2.47;;
22863;SDS011;11599;49.882;8.680;2023-04-15T02:34:40;6.17;;;2.40;;
22863;SDS011;11599;49.882;8.680;2023-04-15T02:45:03;5.50;;;2.30;;
22863;SDS011;11599;49.882;8.680;2023-04-15T02:55:29;6.47;;;2.50;;
22863;SDS011;11599;49.882;8.680;2023-04-15T03:05:51;8.17;;;2.57;;
22863;SDS011;11599;49.882;8.680;2023-04-15T03:16:14;5.70;;;2.57;;
22863;SDS011;11599;49.882;8.680;2023-04-15T03:26:37;7.37;;;3.07;;
22863;SDS011;11599;49.882;8.680;2023-04-15T03:37:06;6.55;;;3.20;;
22863;SDS011;11599;49.882;8.680;2023-04-15T03:47:28;5.87;;;2.50;;
22863;SDS011;11599;49.882;8.680;2023-04-15T03:57:51;4.93;;;2.47;;
22863;SDS011;11599;49.882;8.680;2023-04-15T04:08:12;5.70;;;2.50;;
22863;SDS011;11599;49.882;8.680;2023-04-15T04:18:37;6.23;;;2.37;;
22863;SDS011;11599;49.882;8.680;2023-04-15T04:28:58;9.20;;;2.63;;
22863;SDS011;11599;49.882;8.680;2023-04-15T04:39:22;7.53;;;2.40;;
22863;SDS011;11599;49.882;8.680;2023-04-15T04:49:43;5.37;;;2.60;;
22863;SDS011;11599;49.882;8.680;2023-04-15T05:00:07;8.37;;;2.50;;
22863;SDS011;11599;49.882;8.680;2023-04-15T05:10:28;8.07;;;3.65;;
22863;SDS011;11599;49.882;8.680;2023-04-15T05:20:52;7.10;;;3.00;;
22863;SDS011;11599;49.882;8.680;2023-04-15T05:31:13;6.67;;;3.03;;
22863;SDS011;11599;49.882;8.680;2023-04-15T05:41:37;5.13;;;2.67;;
22863;SDS011;11599;49.882;8.680;2023-04-15T05:51:58;6.30;;;2.90;;
22863;SDS011;11599;49.882;8.680;2023-04-15T06:02:21;10.20;;;3.50;;
22863;SDS011;11599;49.882;8.680;2023-04-15T06:12:43;5.27;;;3.00;;
22863;SDS011;11599;49.882;8.680;2023-04-15T06:23:07;6.50;;;3.00;;
22863;SDS011;11599;49.882;8.680;2023-04-15T06:33:28;5.27;;;2.87;;
22863;SDS011;11599;49.882;8.680;2023-04-15T06:44:03;5.87;;;2.67;;
22863;SDS011;11599;49.882;8.680;2023-04-15T06:54:30;10.13;;;3.50;;
22863;SDS011;11599;49.882;8.680;2023-04-15T07:04:56;5.70;;;3.60;;
22863;SDS011;11599;49.882;8.680;2023-04-15T07:15:24;10.77;;;4.83;;
22863;SDS011;11599;49.882;8.680;2023-04-15T07:25:55;9.80;;;4.97;;
22863;SDS011;11599;49.882;8.680;2023-04-15T07:57:08;15.70;;;5.50;;
22863;SDS011;11599;49.882;8.680;2023-04-15T08:17:53;11.00;;;6.00;;
22863;SDS011;11599;49.882;8.680;2023-04-15T14:04:26;1.60;;;1.00;;
22863;SDS011;11599;49.882;8.680;2023-04-15T14:14:47;1.93;;;0.90;;
22863;SDS011;11599;49.882;8.680;2023-04-15T14:25:10;0.90;;;0.70;;
22863;SDS011;11599;49.882;8.680;2023-04-15T14:35:32;1.00;;;0.80;;
22863;SDS011;11599;49.882;8.680;2023-04-15T14:45:55;1.13;;;0.80;;
22863;SDS011;11599;49.882;8.680;2023-04-15T14:56:17;1.27;;;0.70;;
22863;SDS011;11599;49.882;8.680;2023-04-15T15:06:47;1.93;;;0.70;;
22863;SDS011;11599;49.882;8.680;2023-04-15T15:17:09;3.10;;;1.10;;
22863;SDS011;11599;49.882;8.680;2023-04-15T15:27:32;3.30;;;0.90;;
22863;SDS011;11599;49.882;8.680;2023-04-15T15:37:53;1.40;;;0.80;;
22863;SDS011;11599;49.882;8.680;2023-04-15T15:48:16;1.10;;;1.00;;
22863;SDS011;11599;49.882;8.680;2023-04-15T15:58:39;0.80;;;0.70;;
22863;SDS011;11599;49.882;8.680;2023-04-15T16:09:01;2.13;;;0.80;;
22863;SDS011;11599;49.882;8.680;2023-04-15T16:19:23;0.97;;;0.60;;
22863;SDS011;11599;49.882;8.680;2023-04-15T16:29:48;2.03;;;1.07;;
22863;SDS011;11599;49.882;8.680;2023-04-15T16:40:10;6.73;;;2.20;;
22863;SDS011;11599;49.882;8.680;2023-04-15T16:50:33;7.47;;;2.00;;
22863;SDS011;11599;49.882;8.680;2023-04-15T17:00:56;5.13;;;2.40;;
22863;SDS011;11599;49.882;8.680;2023-04-15T17:11:19;7.63;;;2.93;;
22863;SDS011;11599;49.882;8.680;2023-04-15T17:21:47;4.90;;;2.80;;
22863;SDS011;11599;49.882;8.680;2023-04-15T17:32:10;5.67;;;2.80;;
22863;SDS011;11599;49.882;8.680;2023-04-15T17:42:32;7.30;;;2.80;;
22863;SDS011;11599;49.882;8.680;2023-04-15T17:52:55;4.80;;;3.10;;
22863;SDS011;11599;49.882;8.680;2023-04-15T18:03:17;4.33;;;2.63;;
22863;SDS011;11599;49.882;8.680;2023-04-15T18:13:40;5.57;;;3.10;;
22863;SDS011;11599;49.882;8.680;2023-04-15T18:24:01;6.53;;;4.23;;
22863;SDS011;11599;49.882;8.680;2023-04-15T18:34:24;5.50;;;3.63;;
22863;SDS011;11599;49.882;8.680;2023-04-15T18:44:46;6.80;;;4.00;;
22863;SDS011;11599;49.882;8.680;2023-04-15T18:55:09;5.93;;;4.00;;
22863;SDS011;11599;49.882;8.680;2023-04-15T19:05:31;5.67;;;3.77;;
22863;SDS011;11599;49.882;8.680;2023-04-15T19:15:53;6.13;;;3.30;;
22863;SDS011;11599;49.882;8.680;2023-04-15T19:26:15;5.90;;;3.80;;
22863;SDS011;11599;49.882;8.680;2023-04-15T19:36:38;8.20;;;4.40;;
22863;SDS011;11599;49.882;8.680;2023-04-15T19:46:59;15.07;;;6.03;;
22863;SDS011;11599;49.882;8.680;2023-04-15T19:57:22;13.87;;;5.03;;
22863;SDS011;11599;49.882;8.680;2023-04-15T20:07:44;10.53;;;4.87;;
22863;SDS011;11599;49.882;8.680;2023-04-15T20:18:08;9.50;;;5.33;;
22863;SDS011;11599;49.882;8.680;2023-04-15T20:28:30;9.03;;;4.60;;
22863;SDS011;11599;49.882;8.680;2023-04-15T20:38:53;10.97;;;4.30;;
22863;SDS011;11599;49.882;8.680;2023-04-15T20:49:14;13.30;;;6.63;;
22863;SDS011;11599;49.882;8.680;2023-04-15T20:59:37;9.90;;;4.83;;
22863;SDS011;11599;49.882;8.680;2023-04-15T21:09:58;8.93;;;4.30;;
22863;SDS011;11599;49.882;8.680;2023-04-15T21:20:21;6.53;;;4.37;;
22863;SDS011;11599;49.882;8.680;2023-04-15T21:30:43;5.82;;;3.67;;
22863;SDS011;11599;49.882;8.680;2023-04-15T21:41:06;4.90;;;3.30;;
22863;SDS011;11599;49.882;8.680;2023-04-15T21:51:28;4.43;;;2.60;;
22863;SDS011;11599;49.882;8.680;2023-04-15T22:01:51;3.70;;;2.33;;
22863;SDS011;11599;49.882;8.680;2023-04-15T22:12:13;4.70;;;3.17;;
22863;SDS011;11599;49.882;8.680;2023-04-15T22:22:36;5.47;;;2.90;;
22863;SDS011;11599;49.882;8.680;2023-04-15T22:32:57;4.63;;;3.00;;
22863;SDS011;11599;49.882;8.680;2023-04-15T22:43:20;4.17;;;2.60;;
22863;SDS011;11599;49.882;8.680;2023-04-15T22:53:41;5.93;;;3.20;;
22863;SDS011;11599;49.882;8.680;2023-04-15T23:04:04;5.13;;;3.30;;
22863;SDS011;11599;49.882;8.680;2023-04-15T23:14:26;9.07;;;5.10;;
22863;SDS011;11599;49.882;8.680;2023-04-15T23:24:49;11.97;;;5.20;;
22863;SDS011;11599;49.882;8.680;2023-04-15T23:35:10;14.20;;;6.50;;
22863;SDS011;11599;49.882;8.680;2023-04-15T23:45:33;11.87;;;5.83;;
22863;SDS011;11599;49.882;8.680;2023-04-15T23:55:55;14.27;;;5.10;;
